sensor_id;sensor_type;location;lat;lon;timestamp;P1;durP1;ratioP1;P2;durP2;ratioP2
60006;SDS011;45863;50.336;3.536;2023-02-15T00:00:52;72.10;;;38.53;;
60006;SDS011;45863;50.336;3.536;2023-02-15T00:03:19;71.30;;;38.03;;
60006;SDS011;45863;50.336;3.536;2023-02-15T00:05:45;78.53;;;41.03;;
60006;SDS011;45863;50.336;3.536;2023-02-15T00:08:10;70.72;;;38.22;;
60006;SDS011;45863;50.336;3.536;2023-02-15T00:10:35;64.93;;;35.53;;
60006;SDS011;45863;50.336;3.536;2023-02-15T00:13:01;70.28;;;37.58;;
60006;SDS011;45863;50.336;3.536;2023-02-15T00:15:26;64.00;;;34.60;;
60006;SDS011;45863;50.336;3.536;2023-02-15T00:17:51;69.45;;;37.55;;
60006;SDS011;45863;50.336;3.536;2023-02-15T00:20:16;71.72;;;37.58;;
60006;SDS011;45863;50.336;3.536;2023-02-15T00:22:43;68.45;;;38.22;;
60006;SDS011;45863;50.336;3.536;2023-02-15T00:25:08;70.68;;;39.15;;
60006;SDS011;45863;50.336;3.536;2023-02-15T00:27:34;73.13;;;38.63;;
60006;SDS011;45863;50.336;3.536;2023-02-15T00:29:59;72.95;;;39.35;;
60006;SDS011;45863;50.336;3.536;2023-02-15T00:32:24;65.18;;;35.58;;
60006;SDS011;45863;50.336;3.536;2023-02-15T00:34:50;69.72;;;36.70;;
60006;SDS011;45863;50.336;3.536;2023-02-15T00:37:15;62.42;;;34.80;;
60006;SDS011;45863;50.336;3.536;2023-02-15T00:39:40;61.55;;;35.45;;
60006;SDS011;45863;50.336;3.536;2023-02-15T00:42:06;66.63;;;35.35;;
60006;SDS011;45863;50.336;3.536;2023-02-15T00:44:31;68.15;;;35.25;;
60006;SDS011;45863;50.336;3.536;2023-02-15T00:46:56;75.72;;;37.88;;
60006;SDS011;45863;50.336;3.536;2023-02-15T00:49:22;69.68;;;37.58;;
60006;SDS011;45863;50.336;3.536;2023-02-15T00:51:47;73.38;;;37.20;;
60006;SDS011;45863;50.336;3.536;2023-02-15T00:54:13;69.75;;;37.17;;
60006;SDS011;45863;50.336;3.536;2023-02-15T00:56:38;74.13;;;37.22;;
60006;SDS011;45863;50.336;3.536;2023-02-15T00:59:03;69.03;;;37.78;;
60006;SDS011;45863;50.336;3.536;2023-02-15T01:01:29;65.93;;;35.50;;
60006;SDS011;45863;50.336;3.536;2023-02-15T01:03:54;65.32;;;36.15;;
60006;SDS011;45863;50.336;3.536;2023-02-15T01:06:19;66.60;;;34.92;;
60006;SDS011;45863;50.336;3.536;2023-02-15T01:08:45;70.38;;;37.70;;
60006;SDS011;45863;50.336;3.536;2023-02-15T01:11:11;78.25;;;41.60;;
60006;SDS011;45863;50.336;3.536;2023-02-15T01:13:37;76.18;;;41.17;;
60006;SDS011;45863;50.336;3.536;2023-02-15T01:16:03;71.80;;;37.78;;
60006;SDS011;45863;50.336;3.536;2023-02-15T01:18:29;73.13;;;38.55;;
60006;SDS011;45863;50.336;3.536;2023-02-15T01:20:54;72.13;;;37.63;;
60006;SDS011;45863;50.336;3.536;2023-02-15T01:23:20;76.00;;;39.33;;
60006;SDS011;45863;50.336;3.536;2023-02-15T01:25:45;80.85;;;40.38;;
60006;SDS011;45863;50.336;3.536;2023-02-15T01:28:10;82.43;;;43.15;;
60006;SDS011;45863;50.336;3.536;2023-02-15T01:30:36;75.68;;;41.08;;
60006;SDS011;45863;50.336;3.536;2023-02-15T01:33:01;75.75;;;40.60;;
60006;SDS011;45863;50.336;3.536;2023-02-15T01:35:27;68.93;;;38.92;;
60006;SDS011;45863;50.336;3.536;2023-02-15T01:37:52;65.53;;;35.75;;
60006;SDS011;45863;50.336;3.536;2023-02-15T01:40:17;56.80;;;31.90;;
60006;SDS011;45863;50.336;3.536;2023-02-15T01:42:43;59.72;;;33.15;;
60006;SDS011;45863;50.336;3.536;2023-02-15T01:45:28;60.92;;;32.55;;
60006;SDS011;45863;50.336;3.536;2023-02-15T01:48:03;63.03;;;34.10;;
60006;SDS011;45863;50.336;3.536;2023-02-15T01:50:33;76.60;;;39.88;;
60006;SDS011;45863;50.336;3.536;2023-02-15T01:55:29;74.90;;;38.90;;
60006;SDS011;45863;50.336;3.536;2023-02-15T01:57:56;79.45;;;42.00;;
60006;SDS011;45863;50.336;3.536;2023-02-15T02:00:22;84.30;;;41.75;;
60006;SDS011;45863;50.336;3.536;2023-02-15T02:02:48;74.90;;;38.92;;
60006;SDS011;45863;50.336;3.536;2023-02-15T02:05:14;79.35;;;39.42;;
60006;SDS011;45863;50.336;3.536;2023-02-15T02:07:40;86.35;;;41.00;;
60006;SDS011;45863;50.336;3.536;2023-02-15T02:10:07;82.25;;;42.33;;
60006;SDS011;45863;50.336;3.536;2023-02-15T02:12:33;74.47;;;38.33;;
60006;SDS011;45863;50.336;3.536;2023-02-15T02:15:00;69.47;;;36.25;;
60006;SDS011;45863;50.336;3.536;2023-02-15T02:17:42;69.25;;;37.58;;
60006;SDS011;45863;50.336;3.536;2023-02-15T02:20:16;66.50;;;37.05;;
60006;SDS011;45863;50.336;3.536;2023-02-15T02:25:28;69.15;;;37.55;;
60006;SDS011;45863;50.336;3.536;2023-02-15T02:38:23;71.20;;;36.95;;
60006;SDS011;45863;50.336;3.536;2023-02-15T02:45:58;69.38;;;35.88;;
60006;SDS011;45863;50.336;3.536;2023-02-15T02:48:27;64.30;;;34.97;;
60006;SDS011;45863;50.336;3.536;2023-02-15T02:50:53;62.13;;;34.17;;
60006;SDS011;45863;50.336;3.536;2023-02-15T02:53:18;70.78;;;36.38;;
60006;SDS011;45863;50.336;3.536;2023-02-15T02:55:53;66.22;;;36.67;;
60006;SDS011;45863;50.336;3.536;2023-02-15T03:00:45;71.00;;;37.22;;
60006;SDS011;45863;50.336;3.536;2023-02-15T03:03:12;68.15;;;37.05;;
60006;SDS011;45863;50.336;3.536;2023-02-15T03:05:41;68.35;;;34.35;;
60006;SDS011;45863;50.336;3.536;2023-02-15T03:08:07;68.95;;;35.83;;
60006;SDS011;45863;50.336;3.536;2023-02-15T03:10:35;70.10;;;36.50;;
60006;SDS011;45863;50.336;3.536;2023-02-15T03:13:01;64.72;;;35.22;;
60006;SDS011;45863;50.336;3.536;2023-02-15T03:15:31;67.80;;;34.95;;
60006;SDS011;45863;50.336;3.536;2023-02-15T03:18:17;66.10;;;36.17;;
60006;SDS011;45863;50.336;3.536;2023-02-15T03:20:45;62.42;;;34.03;;
60006;SDS011;45863;50.336;3.536;2023-02-15T03:23:16;63.13;;;33.85;;
60006;SDS011;45863;50.336;3.536;2023-02-15T03:25:43;68.00;;;34.95;;
60006;SDS011;45863;50.336;3.536;2023-02-15T03:28:10;62.80;;;35.10;;
60006;SDS011;45863;50.336;3.536;2023-02-15T03:30:36;68.63;;;34.65;;
60006;SDS011;45863;50.336;3.536;2023-02-15T03:33:02;62.55;;;34.20;;
60006;SDS011;45863;50.336;3.536;2023-02-15T03:35:47;70.97;;;37.67;;
60006;SDS011;45863;50.336;3.536;2023-02-15T03:38:15;74.97;;;38.58;;
60006;SDS011;45863;50.336;3.536;2023-02-15T03:40:43;76.38;;;37.97;;
60006;SDS011;45863;50.336;3.536;2023-02-15T03:46:01;68.65;;;36.40;;
60006;SDS011;45863;50.336;3.536;2023-02-15T03:48:32;51.88;;;26.52;;
60006;SDS011;45863;50.336;3.536;2023-02-15T03:51:00;71.32;;;35.75;;
60006;SDS011;45863;50.336;3.536;2023-02-15T03:53:45;68.68;;;35.28;;
60006;SDS011;45863;50.336;3.536;2023-02-15T03:56:12;66.70;;;35.75;;
60006;SDS011;45863;50.336;3.536;2023-02-15T03:58:37;67.53;;;35.97;;
60006;SDS011;45863;50.336;3.536;2023-02-15T04:04:09;66.72;;;35.17;;
60006;SDS011;45863;50.336;3.536;2023-02-15T04:06:36;59.63;;;32.85;;
60006;SDS011;45863;50.336;3.536;2023-02-15T04:09:02;68.60;;;36.38;;
60006;SDS011;45863;50.336;3.536;2023-02-15T04:11:45;68.22;;;34.83;;
60006;SDS011;45863;50.336;3.536;2023-02-15T04:14:11;66.85;;;34.10;;
60006;SDS011;45863;50.336;3.536;2023-02-15T04:16:54;63.85;;;33.83;;
60006;SDS011;45863;50.336;3.536;2023-02-15T04:19:20;69.72;;;35.47;;
60006;SDS011;45863;50.336;3.536;2023-02-15T04:22:04;82.10;;;39.58;;
60006;SDS011;45863;50.336;3.536;2023-02-15T04:24:47;69.50;;;36.42;;
60006;SDS011;45863;50.336;3.536;2023-02-15T04:27:32;71.63;;;36.75;;
60006;SDS011;45863;50.336;3.536;2023-02-15T04:29:57;70.60;;;36.95;;
60006;SDS011;45863;50.336;3.536;2023-02-15T04:32:22;77.05;;;38.00;;
60006;SDS011;45863;50.336;3.536;2023-02-15T04:34:47;76.18;;;37.67;;
60006;SDS011;45863;50.336;3.536;2023-02-15T04:37:13;70.20;;;36.67;;
60006;SDS011;45863;50.336;3.536;2023-02-15T04:39:38;80.60;;;36.75;;
60006;SDS011;45863;50.336;3.536;2023-02-15T04:42:03;74.07;;;38.47;;
60006;SDS011;45863;50.336;3.536;2023-02-15T04:44:28;78.13;;;38.30;;
60006;SDS011;45863;50.336;3.536;2023-02-15T04:46:54;75.72;;;38.47;;
60006;SDS011;45863;50.336;3.536;2023-02-15T04:49:19;73.22;;;38.42;;
60006;SDS011;45863;50.336;3.536;2023-02-15T04:51:45;70.22;;;35.75;;
60006;SDS011;45863;50.336;3.536;2023-02-15T04:54:10;73.60;;;36.15;;
60006;SDS011;45863;50.336;3.536;2023-02-15T04:56:35;68.75;;;35.70;;
60006;SDS011;45863;50.336;3.536;2023-02-15T04:59:02;71.88;;;36.08;;
60006;SDS011;45863;50.336;3.536;2023-02-15T05:01:28;69.15;;;37.13;;
60006;SDS011;45863;50.336;3.536;2023-02-15T05:03:53;71.50;;;35.38;;
60006;SDS011;45863;50.336;3.536;2023-02-15T05:06:18;67.68;;;34.72;;
60006;SDS011;45863;50.336;3.536;2023-02-15T05:08:43;68.22;;;34.15;;
60006;SDS011;45863;50.336;3.536;2023-02-15T05:11:09;75.93;;;36.88;;
60006;SDS011;45863;50.336;3.536;2023-02-15T05:13:34;74.15;;;35.28;;
60006;SDS011;45863;50.336;3.536;2023-02-15T05:15:59;71.20;;;34.78;;
60006;SDS011;45863;50.336;3.536;2023-02-15T05:18:25;76.15;;;36.03;;
60006;SDS011;45863;50.336;3.536;2023-02-15T05:20:50;67.85;;;34.58;;
60006;SDS011;45863;50.336;3.536;2023-02-15T05:23:15;67.07;;;33.83;;
60006;SDS011;45863;50.336;3.536;2023-02-15T05:25:40;66.68;;;34.17;;
60006;SDS011;45863;50.336;3.536;2023-02-15T05:28:27;69.50;;;35.17;;
60006;SDS011;45863;50.336;3.536;2023-02-15T05:31:01;71.43;;;35.15;;
60006;SDS011;45863;50.336;3.536;2023-02-15T05:33:27;67.45;;;34.08;;
60006;SDS011;45863;50.336;3.536;2023-02-15T05:35:55;67.00;;;34.03;;
60006;SDS011;45863;50.336;3.536;2023-02-15T05:38:20;70.50;;;35.22;;
60006;SDS011;45863;50.336;3.536;2023-02-15T05:40:46;66.18;;;34.90;;
60006;SDS011;45863;50.336;3.536;2023-02-15T05:43:11;73.00;;;36.08;;
60006;SDS011;45863;50.336;3.536;2023-02-15T05:45:36;71.35;;;34.38;;
60006;SDS011;45863;50.336;3.536;2023-02-15T05:48:02;73.18;;;35.10;;
60006;SDS011;45863;50.336;3.536;2023-02-15T05:50:27;71.63;;;34.95;;
60006;SDS011;45863;50.336;3.536;2023-02-15T05:52:52;73.75;;;35.30;;
60006;SDS011;45863;50.336;3.536;2023-02-15T05:55:18;70.30;;;34.30;;
60006;SDS011;45863;50.336;3.536;2023-02-15T05:57:43;73.82;;;35.35;;
60006;SDS011;45863;50.336;3.536;2023-02-15T06:00:08;65.97;;;31.52;;
60006;SDS011;45863;50.336;3.536;2023-02-15T06:02:35;65.22;;;31.13;;
60006;SDS011;45863;50.336;3.536;2023-02-15T06:05:21;64.85;;;34.25;;
60006;SDS011;45863;50.336;3.536;2023-02-15T06:07:55;64.63;;;31.92;;
60006;SDS011;45863;50.336;3.536;2023-02-15T06:10:21;73.95;;;33.08;;
60006;SDS011;45863;50.336;3.536;2023-02-15T06:12:46;67.75;;;33.92;;
60006;SDS011;45863;50.336;3.536;2023-02-15T06:15:11;61.13;;;31.90;;
60006;SDS011;45863;50.336;3.536;2023-02-15T06:17:37;65.45;;;33.90;;
60006;SDS011;45863;50.336;3.536;2023-02-15T06:20:02;65.22;;;32.70;;
60006;SDS011;45863;50.336;3.536;2023-02-15T06:22:28;69.63;;;32.50;;
60006;SDS011;45863;50.336;3.536;2023-02-15T06:24:53;67.15;;;31.77;;
60006;SDS011;45863;50.336;3.536;2023-02-15T06:27:19;66.25;;;32.78;;
60006;SDS011;45863;50.336;3.536;2023-02-15T06:29:44;61.70;;;30.67;;
60006;SDS011;45863;50.336;3.536;2023-02-15T06:32:10;69.15;;;33.30;;
60006;SDS011;45863;50.336;3.536;2023-02-15T06:34:35;67.10;;;33.47;;
60006;SDS011;45863;50.336;3.536;2023-02-15T06:37:00;69.75;;;31.83;;
60006;SDS011;45863;50.336;3.536;2023-02-15T06:39:26;63.70;;;31.30;;
60006;SDS011;45863;50.336;3.536;2023-02-15T06:41:51;68.13;;;33.70;;
60006;SDS011;45863;50.336;3.536;2023-02-15T06:44:17;67.25;;;33.20;;
60006;SDS011;45863;50.336;3.536;2023-02-15T06:46:42;76.28;;;35.83;;
60006;SDS011;45863;50.336;3.536;2023-02-15T06:49:07;71.97;;;34.10;;
60006;SDS011;45863;50.336;3.536;2023-02-15T06:51:33;72.00;;;35.55;;
60006;SDS011;45863;50.336;3.536;2023-02-15T06:53:59;78.10;;;35.80;;
60006;SDS011;45863;50.336;3.536;2023-02-15T06:56:24;69.13;;;32.42;;
60006;SDS011;45863;50.336;3.536;2023-02-15T06:58:50;73.80;;;34.35;;
60006;SDS011;45863;50.336;3.536;2023-02-15T07:01:15;69.97;;;33.92;;
60006;SDS011;45863;50.336;3.536;2023-02-15T07:03:40;68.03;;;34.28;;
60006;SDS011;45863;50.336;3.536;2023-02-15T07:06:06;76.57;;;35.10;;
60006;SDS011;45863;50.336;3.536;2023-02-15T07:08:33;75.28;;;35.60;;
60006;SDS011;45863;50.336;3.536;2023-02-15T07:10:58;72.13;;;33.80;;
60006;SDS011;45863;50.336;3.536;2023-02-15T07:13:44;74.47;;;33.70;;
60006;SDS011;45863;50.336;3.536;2023-02-15T07:16:09;75.88;;;32.78;;
60006;SDS011;45863;50.336;3.536;2023-02-15T07:18:35;73.82;;;32.40;;
60006;SDS011;45863;50.336;3.536;2023-02-15T07:21:00;73.55;;;33.25;;
60006;SDS011;45863;50.336;3.536;2023-02-15T07:23:25;69.75;;;30.98;;
60006;SDS011;45863;50.336;3.536;2023-02-15T07:25:58;68.82;;;33.20;;
60006;SDS011;45863;50.336;3.536;2023-02-15T07:28:24;64.43;;;32.10;;
60006;SDS011;45863;50.336;3.536;2023-02-15T07:30:50;63.28;;;31.25;;
60006;SDS011;45863;50.336;3.536;2023-02-15T07:33:15;63.35;;;30.67;;
60006;SDS011;45863;50.336;3.536;2023-02-15T07:35:50;64.90;;;30.92;;
60006;SDS011;45863;50.336;3.536;2023-02-15T07:38:15;56.90;;;29.00;;
60006;SDS011;45863;50.336;3.536;2023-02-15T07:40:41;62.97;;;29.52;;
60006;SDS011;45863;50.336;3.536;2023-02-15T07:43:07;59.55;;;29.50;;
60006;SDS011;45863;50.336;3.536;2023-02-15T07:45:32;63.95;;;29.55;;
60006;SDS011;45863;50.336;3.536;2023-02-15T07:47:57;62.67;;;28.90;;
60006;SDS011;45863;50.336;3.536;2023-02-15T07:50:24;59.17;;;27.50;;
60006;SDS011;45863;50.336;3.536;2023-02-15T07:52:50;57.08;;;26.88;;
60006;SDS011;45863;50.336;3.536;2023-02-15T07:55:15;60.03;;;28.63;;
60006;SDS011;45863;50.336;3.536;2023-02-15T07:57:41;56.72;;;26.40;;
60006;SDS011;45863;50.336;3.536;2023-02-15T08:00:07;58.30;;;28.83;;
60006;SDS011;45863;50.336;3.536;2023-02-15T08:02:32;60.53;;;28.42;;
60006;SDS011;45863;50.336;3.536;2023-02-15T08:04:59;55.80;;;27.77;;
60006;SDS011;45863;50.336;3.536;2023-02-15T08:07:24;54.08;;;26.70;;
60006;SDS011;45863;50.336;3.536;2023-02-15T08:09:49;55.20;;;27.73;;
60006;SDS011;45863;50.336;3.536;2023-02-15T08:12:14;60.40;;;28.95;;
60006;SDS011;45863;50.336;3.536;2023-02-15T08:14:40;58.28;;;27.08;;
60006;SDS011;45863;50.336;3.536;2023-02-15T08:17:05;56.90;;;27.60;;
60006;SDS011;45863;50.336;3.536;2023-02-15T08:19:31;52.88;;;21.83;;
60006;SDS011;45863;50.336;3.536;2023-02-15T08:24:23;49.78;;;20.95;;
60006;SDS011;45863;50.336;3.536;2023-02-15T08:26:48;43.75;;;19.38;;
60006;SDS011;45863;50.336;3.536;2023-02-15T08:29:14;52.70;;;20.95;;
60006;SDS011;45863;50.336;3.536;2023-02-15T08:31:40;49.20;;;19.40;;
60006;SDS011;45863;50.336;3.536;2023-02-15T08:34:06;47.50;;;20.95;;
60006;SDS011;45863;50.336;3.536;2023-02-15T08:36:32;54.42;;;19.83;;
60006;SDS011;45863;50.336;3.536;2023-02-15T08:38:57;47.30;;;19.98;;
60006;SDS011;45863;50.336;3.536;2023-02-15T08:41:24;49.95;;;21.17;;
60006;SDS011;45863;50.336;3.536;2023-02-15T08:43:51;45.20;;;19.48;;
60006;SDS011;45863;50.336;3.536;2023-02-15T08:46:17;43.47;;;18.20;;
60006;SDS011;45863;50.336;3.536;2023-02-15T08:48:43;50.38;;;20.58;;
60006;SDS011;45863;50.336;3.536;2023-02-15T08:51:12;42.72;;;19.27;;
60006;SDS011;45863;50.336;3.536;2023-02-15T08:53:39;41.97;;;18.55;;
60006;SDS011;45863;50.336;3.536;2023-02-15T08:56:05;39.58;;;17.77;;
60006;SDS011;45863;50.336;3.536;2023-02-15T08:58:31;37.78;;;17.15;;
60006;SDS011;45863;50.336;3.536;2023-02-15T09:00:56;41.40;;;19.20;;
60006;SDS011;45863;50.336;3.536;2023-02-15T09:03:22;37.83;;;16.60;;
60006;SDS011;45863;50.336;3.536;2023-02-15T09:05:47;39.35;;;16.52;;
60006;SDS011;45863;50.336;3.536;2023-02-15T09:08:12;38.90;;;17.35;;
60006;SDS011;45863;50.336;3.536;2023-02-15T09:10:37;40.27;;;17.93;;
60006;SDS011;45863;50.336;3.536;2023-02-15T09:13:02;34.38;;;16.15;;
60006;SDS011;45863;50.336;3.536;2023-02-15T09:15:28;39.63;;;17.97;;
60006;SDS011;45863;50.336;3.536;2023-02-15T09:17:53;34.42;;;16.02;;
60006;SDS011;45863;50.336;3.536;2023-02-15T09:20:18;36.43;;;17.03;;
60006;SDS011;45863;50.336;3.536;2023-02-15T09:22:43;35.42;;;15.35;;
60006;SDS011;45863;50.336;3.536;2023-02-15T09:25:09;37.00;;;15.60;;
60006;SDS011;45863;50.336;3.536;2023-02-15T09:27:34;36.10;;;17.23;;
60006;SDS011;45863;50.336;3.536;2023-02-15T09:29:59;35.03;;;15.52;;
60006;SDS011;45863;50.336;3.536;2023-02-15T09:32:24;39.10;;;15.67;;
60006;SDS011;45863;50.336;3.536;2023-02-15T09:34:50;32.67;;;15.60;;
60006;SDS011;45863;50.336;3.536;2023-02-15T09:37:15;33.25;;;16.20;;
60006;SDS011;45863;50.336;3.536;2023-02-15T09:39:41;36.25;;;16.35;;
60006;SDS011;45863;50.336;3.536;2023-02-15T09:56:53;37.55;;;16.80;;
60006;SDS011;45863;50.336;3.536;2023-02-15T10:24:59;45.50;;;26.17;;
60006;SDS011;45863;50.336;3.536;2023-02-15T10:27:30;48.45;;;26.38;;
60006;SDS011;45863;50.336;3.536;2023-02-15T10:30:08;45.40;;;25.55;;
60006;SDS011;45863;50.336;3.536;2023-02-15T10:43:08;46.33;;;27.70;;
60006;SDS011;45863;50.336;3.536;2023-02-15T10:45:40;43.13;;;25.65;;
60006;SDS011;45863;50.336;3.536;2023-02-15T10:50:53;42.05;;;24.85;;
60006;SDS011;45863;50.336;3.536;2023-02-15T10:58:42;46.97;;;28.17;;
60006;SDS011;45863;50.336;3.536;2023-02-15T11:06:53;47.55;;;26.95;;
60006;SDS011;45863;50.336;3.536;2023-02-15T11:09:19;44.00;;;26.98;;
60006;SDS011;45863;50.336;3.536;2023-02-15T11:11:49;43.38;;;26.35;;
60006;SDS011;45863;50.336;3.536;2023-02-15T11:17:55;49.97;;;28.93;;
60006;SDS011;45863;50.336;3.536;2023-02-15T11:21:04;44.97;;;28.17;;
60006;SDS011;45863;50.336;3.536;2023-02-15T11:23:30;45.05;;;28.77;;
60006;SDS011;45863;50.336;3.536;2023-02-15T11:26:00;48.25;;;29.88;;
60006;SDS011;45863;50.336;3.536;2023-02-15T11:28:41;43.05;;;29.00;;
60006;SDS011;45863;50.336;3.536;2023-02-15T11:31:21;43.63;;;27.67;;
60006;SDS011;45863;50.336;3.536;2023-02-15T11:34:12;45.55;;;29.20;;
60006;SDS011;45863;50.336;3.536;2023-02-15T11:36:33;40.25;;;27.65;;
60006;SDS011;45863;50.336;3.536;2023-02-15T11:39:05;42.97;;;29.05;;
60006;SDS011;45863;50.336;3.536;2023-02-15T11:41:34;41.45;;;26.60;;
60006;SDS011;45863;50.336;3.536;2023-02-15T11:44:06;42.53;;;27.13;;
60006;SDS011;45863;50.336;3.536;2023-02-15T11:46:33;45.72;;;30.83;;
60006;SDS011;45863;50.336;3.536;2023-02-15T11:48:58;48.33;;;29.35;;
60006;SDS011;45863;50.336;3.536;2023-02-15T11:51:24;44.30;;;28.23;;
60006;SDS011;45863;50.336;3.536;2023-02-15T11:53:50;44.95;;;30.48;;
60006;SDS011;45863;50.336;3.536;2023-02-15T11:56:17;45.03;;;29.83;;
60006;SDS011;45863;50.336;3.536;2023-02-15T11:58:51;45.63;;;31.05;;
60006;SDS011;45863;50.336;3.536;2023-02-15T12:01:33;46.47;;;30.88;;
60006;SDS011;45863;50.336;3.536;2023-02-15T12:06:38;44.20;;;29.17;;
60006;SDS011;45863;50.336;3.536;2023-02-15T12:09:21;44.08;;;27.00;;
60006;SDS011;45863;50.336;3.536;2023-02-15T12:11:50;48.90;;;30.90;;
60006;SDS011;45863;50.336;3.536;2023-02-15T12:14:15;46.87;;;31.00;;
60006;SDS011;45863;50.336;3.536;2023-02-15T12:16:48;48.60;;;30.63;;
60006;SDS011;45863;50.336;3.536;2023-02-15T12:22:22;48.28;;;31.00;;
60006;SDS011;45863;50.336;3.536;2023-02-15T12:24:49;45.45;;;28.10;;
60006;SDS011;45863;50.336;3.536;2023-02-15T12:27:17;47.13;;;30.45;;
60006;SDS011;45863;50.336;3.536;2023-02-15T12:29:44;44.42;;;28.60;;
60006;SDS011;45863;50.336;3.536;2023-02-15T12:32:22;47.55;;;29.42;;
60006;SDS011;45863;50.336;3.536;2023-02-15T12:34:48;46.13;;;29.42;;
60006;SDS011;45863;50.336;3.536;2023-02-15T12:37:19;47.90;;;31.10;;
60006;SDS011;45863;50.336;3.536;2023-02-15T12:42:18;51.25;;;31.15;;
60006;SDS011;45863;50.336;3.536;2023-02-15T12:44:57;47.33;;;28.35;;
60006;SDS011;45863;50.336;3.536;2023-02-15T12:47:23;46.85;;;30.67;;
60006;SDS011;45863;50.336;3.536;2023-02-15T12:50:24;46.33;;;29.83;;
60006;SDS011;45863;50.336;3.536;2023-02-15T12:55:17;48.78;;;30.23;;
60006;SDS011;45863;50.336;3.536;2023-02-15T12:57:43;46.42;;;31.02;;
60006;SDS011;45863;50.336;3.536;2023-02-15T13:02:43;45.30;;;31.00;;
60006;SDS011;45863;50.336;3.536;2023-02-15T13:07:34;44.57;;;29.87;;
60006;SDS011;45863;50.336;3.536;2023-02-15T13:10:00;46.17;;;30.65;;
60006;SDS011;45863;50.336;3.536;2023-02-15T13:12:26;43.88;;;30.85;;
60006;SDS011;45863;50.336;3.536;2023-02-15T13:14:52;44.25;;;29.65;;
60006;SDS011;45863;50.336;3.536;2023-02-15T13:17:23;47.80;;;30.35;;
60006;SDS011;45863;50.336;3.536;2023-02-15T13:19:50;51.45;;;32.03;;
60006;SDS011;45863;50.336;3.536;2023-02-15T13:22:18;45.95;;;29.35;;
60006;SDS011;45863;50.336;3.536;2023-02-15T13:24:55;52.22;;;32.00;;
60006;SDS011;45863;50.336;3.536;2023-02-15T13:27:23;44.35;;;30.33;;
60006;SDS011;45863;50.336;3.536;2023-02-15T13:29:56;48.97;;;31.58;;
60006;SDS011;45863;50.336;3.536;2023-02-15T13:34:48;49.20;;;31.53;;
60006;SDS011;45863;50.336;3.536;2023-02-15T13:37:20;48.90;;;30.57;;
60006;SDS011;45863;50.336;3.536;2023-02-15T13:40:33;49.67;;;33.08;;
60006;SDS011;45863;50.336;3.536;2023-02-15T13:53:10;51.78;;;30.55;;
60006;SDS011;45863;50.336;3.536;2023-02-15T13:55:40;50.17;;;32.33;;
60006;SDS011;45863;50.336;3.536;2023-02-15T14:15:33;51.30;;;32.60;;
60006;SDS011;45863;50.336;3.536;2023-02-15T14:20:29;53.22;;;31.10;;
60006;SDS011;45863;50.336;3.536;2023-02-15T14:30:39;51.88;;;32.13;;
60006;SDS011;45863;50.336;3.536;2023-02-15T14:33:14;56.67;;;33.38;;
60006;SDS011;45863;50.336;3.536;2023-02-15T14:35:43;55.65;;;33.55;;
60006;SDS011;45863;50.336;3.536;2023-02-15T14:46:19;67.55;;;38.13;;
60006;SDS011;45863;50.336;3.536;2023-02-15T14:48:49;55.83;;;34.25;;
60006;SDS011;45863;50.336;3.536;2023-02-15T14:53:59;57.55;;;35.45;;
60006;SDS011;45863;50.336;3.536;2023-02-15T14:56:25;62.33;;;35.23;;
60006;SDS011;45863;50.336;3.536;2023-02-15T15:01:17;62.20;;;36.17;;
60006;SDS011;45863;50.336;3.536;2023-02-15T15:03:50;61.35;;;35.20;;
60006;SDS011;45863;50.336;3.536;2023-02-15T15:06:23;60.65;;;35.13;;
60006;SDS011;45863;50.336;3.536;2023-02-15T15:13:56;60.47;;;35.83;;
60006;SDS011;45863;50.336;3.536;2023-02-15T15:18:52;63.53;;;37.75;;
60006;SDS011;45863;50.336;3.536;2023-02-15T15:24:02;70.97;;;40.60;;
60006;SDS011;45863;50.336;3.536;2023-02-15T15:26:28;64.18;;;38.35;;
60006;SDS011;45863;50.336;3.536;2023-02-15T15:28:54;64.18;;;38.80;;
60006;SDS011;45863;50.336;3.536;2023-02-15T15:49:23;67.95;;;35.22;;
60006;SDS011;45863;50.336;3.536;2023-02-15T15:51:52;67.93;;;37.13;;
60006;SDS011;45863;50.336;3.536;2023-02-15T15:54:18;65.50;;;34.53;;
60006;SDS011;45863;50.336;3.536;2023-02-15T15:56:46;63.28;;;35.95;;
60006;SDS011;45863;50.336;3.536;2023-02-15T15:59:14;60.55;;;34.65;;
60006;SDS011;45863;50.336;3.536;2023-02-15T16:01:42;64.13;;;34.90;;
60006;SDS011;45863;50.336;3.536;2023-02-15T16:04:12;68.80;;;36.33;;
60006;SDS011;45863;50.336;3.536;2023-02-15T16:06:38;66.07;;;35.92;;
60006;SDS011;45863;50.336;3.536;2023-02-15T16:11:38;69.47;;;35.03;;
60006;SDS011;45863;50.336;3.536;2023-02-15T16:14:09;65.80;;;33.67;;
60006;SDS011;45863;50.336;3.536;2023-02-15T16:19:01;65.82;;;36.47;;
60006;SDS011;45863;50.336;3.536;2023-02-15T16:21:27;66.75;;;36.28;;
60006;SDS011;45863;50.336;3.536;2023-02-15T16:31:15;63.83;;;30.73;;
60006;SDS011;45863;50.336;3.536;2023-02-15T16:33:41;61.22;;;29.95;;
60006;SDS011;45863;50.336;3.536;2023-02-15T16:36:20;63.33;;;32.15;;
60006;SDS011;45863;50.336;3.536;2023-02-15T16:41:13;57.50;;;27.92;;
60006;SDS011;45863;50.336;3.536;2023-02-15T16:43:40;65.00;;;29.27;;
60006;SDS011;45863;50.336;3.536;2023-02-15T16:46:09;57.42;;;28.88;;
60006;SDS011;45863;50.336;3.536;2023-02-15T16:48:38;55.70;;;27.80;;
60006;SDS011;45863;50.336;3.536;2023-02-15T16:51:04;59.20;;;28.92;;
60006;SDS011;45863;50.336;3.536;2023-02-15T16:53:29;60.65;;;28.38;;
60006;SDS011;45863;50.336;3.536;2023-02-15T16:55:58;63.63;;;29.15;;
60006;SDS011;45863;50.336;3.536;2023-02-15T16:58:38;61.05;;;28.63;;
60006;SDS011;45863;50.336;3.536;2023-02-15T17:01:06;51.88;;;27.25;;
60006;SDS011;45863;50.336;3.536;2023-02-15T17:03:32;56.80;;;29.33;;
60006;SDS011;45863;50.336;3.536;2023-02-15T17:05:58;56.00;;;29.25;;
60006;SDS011;45863;50.336;3.536;2023-02-15T17:08:31;60.45;;;29.05;;
60006;SDS011;45863;50.336;3.536;2023-02-15T17:13:25;63.05;;;33.55;;
60006;SDS011;45863;50.336;3.536;2023-02-15T17:18:31;66.20;;;34.83;;
60006;SDS011;45863;50.336;3.536;2023-02-15T17:20:59;68.22;;;38.03;;
60006;SDS011;45863;50.336;3.536;2023-02-15T17:25:50;69.93;;;38.88;;
60006;SDS011;45863;50.336;3.536;2023-02-15T17:28:17;66.57;;;37.15;;
60006;SDS011;45863;50.336;3.536;2023-02-15T17:30:44;69.15;;;37.35;;
60006;SDS011;45863;50.336;3.536;2023-02-15T17:33:44;65.35;;;36.20;;
60006;SDS011;45863;50.336;3.536;2023-02-15T17:36:09;72.38;;;39.75;;
60006;SDS011;45863;50.336;3.536;2023-02-15T17:38:35;55.35;;;27.38;;
60006;SDS011;45863;50.336;3.536;2023-02-15T17:41:01;70.78;;;38.25;;
60006;SDS011;45863;50.336;3.536;2023-02-15T17:43:26;67.40;;;37.92;;
60006;SDS011;45863;50.336;3.536;2023-02-15T17:45:52;65.93;;;37.05;;
60006;SDS011;45863;50.336;3.536;2023-02-15T17:48:21;70.45;;;35.25;;
60006;SDS011;45863;50.336;3.536;2023-02-15T17:50:46;71.25;;;39.85;;
60006;SDS011;45863;50.336;3.536;2023-02-15T17:53:12;74.07;;;37.80;;
60006;SDS011;45863;50.336;3.536;2023-02-15T17:55:39;75.35;;;39.88;;
60006;SDS011;45863;50.336;3.536;2023-02-15T17:58:15;66.78;;;37.55;;
60006;SDS011;45863;50.336;3.536;2023-02-15T18:00:41;68.45;;;37.70;;
60006;SDS011;45863;50.336;3.536;2023-02-15T18:03:26;69.65;;;39.17;;
60006;SDS011;45863;50.336;3.536;2023-02-15T18:06:14;72.80;;;39.33;;